sensor_id;sensor_type;location;lat;lon;timestamp;P1;durP1;ratioP1;P2;durP2;ratioP2
67456;SDS011;54319;52.038;4.640;2023-06-19T00:00:48;9.75;;;2.10;;
67456;SDS011;54319;52.038;4.640;2023-06-19T00:03:14;7.20;;;1.70;;
67456;SDS011;54319;52.038;4.640;2023-06-19T00:05:41;2.80;;;1.35;;
67456;SDS011;54319;52.038;4.640;2023-06-19T00:08:07;1.40;;;1.27;;
67456;SDS011;54319;52.038;4.640;2023-06-19T00:10:34;1.88;;;1.30;;
67456;SDS011;54319;52.038;4.640;2023-06-19T00:13:01;7.53;;;1.25;;
67456;SDS011;54319;52.038;4.640;2023-06-19T00:15:29;2.33;;;1.40;;
67456;SDS011;54319;52.038;4.640;2023-06-19T00:17:56;1.50;;;1.30;;
67456;SDS011;54319;52.038;4.640;2023-06-19T00:20:23;5.13;;;1.30;;
67456;SDS011;54319;52.038;4.640;2023-06-19T00:22:50;3.67;;;1.30;;
67456;SDS011;54319;52.038;4.640;2023-06-19T00:27:44;7.72;;;1.20;;
67456;SDS011;54319;52.038;4.640;2023-06-19T00:30:11;1.90;;;1.27;;
67456;SDS011;54319;52.038;4.640;2023-06-19T00:32:39;2.33;;;1.25;;
67456;SDS011;54319;52.038;4.640;2023-06-19T00:35:12;1.60;;;1.20;;
67456;SDS011;54319;52.038;4.640;2023-06-19T00:37:40;2.28;;;1.30;;
67456;SDS011;54319;52.038;4.640;2023-06-19T00:40:10;3.42;;;1.48;;
67456;SDS011;54319;52.038;4.640;2023-06-19T00:42:42;1.48;;;1.38;;
67456;SDS011;54319;52.038;4.640;2023-06-19T00:45:09;1.95;;;1.48;;
67456;SDS011;54319;52.038;4.640;2023-06-19T00:47:36;4.05;;;1.42;;
67456;SDS011;54319;52.038;4.640;2023-06-19T00:50:05;1.55;;;1.23;;
67456;SDS011;54319;52.038;4.640;2023-06-19T00:52:33;1.95;;;1.40;;
67456;SDS011;54319;52.038;4.640;2023-06-19T00:55:00;2.20;;;1.58;;
67456;SDS011;54319;52.038;4.640;2023-06-19T00:57:27;1.45;;;1.33;;
67456;SDS011;54319;52.038;4.640;2023-06-19T01:02:21;2.58;;;1.67;;
67456;SDS011;54319;52.038;4.640;2023-06-19T01:04:48;9.70;;;2.25;;
67456;SDS011;54319;52.038;4.640;2023-06-19T01:07:19;2.20;;;1.90;;
67456;SDS011;54319;52.038;4.640;2023-06-19T01:10:02;4.68;;;2.50;;
67456;SDS011;54319;52.038;4.640;2023-06-19T01:12:35;5.32;;;2.53;;
67456;SDS011;54319;52.038;4.640;2023-06-19T01:17:34;3.70;;;2.40;;
67456;SDS011;54319;52.038;4.640;2023-06-19T01:20:02;5.03;;;3.20;;
67456;SDS011;54319;52.038;4.640;2023-06-19T01:22:37;4.13;;;2.50;;
67456;SDS011;54319;52.038;4.640;2023-06-19T01:25:04;3.92;;;2.90;;
67456;SDS011;54319;52.038;4.640;2023-06-19T01:27:31;4.50;;;3.20;;
67456;SDS011;54319;52.038;4.640;2023-06-19T01:29:59;4.25;;;3.05;;
67456;SDS011;54319;52.038;4.640;2023-06-19T01:32:29;4.88;;;3.67;;
67456;SDS011;54319;52.038;4.640;2023-06-19T01:35:00;9.48;;;3.92;;
67456;SDS011;54319;52.038;4.640;2023-06-19T01:37:28;6.95;;;4.30;;
67456;SDS011;54319;52.038;4.640;2023-06-19T01:39:59;4.63;;;4.00;;
67456;SDS011;54319;52.038;4.640;2023-06-19T01:42:30;7.75;;;4.30;;
67456;SDS011;54319;52.038;4.640;2023-06-19T01:44:58;8.13;;;4.28;;
67456;SDS011;54319;52.038;4.640;2023-06-19T01:47:28;6.63;;;4.30;;
67456;SDS011;54319;52.038;4.640;2023-06-19T01:49:55;6.15;;;4.80;;
67456;SDS011;54319;52.038;4.640;2023-06-19T01:52:21;7.28;;;4.82;;
67456;SDS011;54319;52.038;4.640;2023-06-19T01:54:48;6.93;;;5.10;;
67456;SDS011;54319;52.038;4.640;2023-06-19T01:57:16;6.15;;;4.95;;
67456;SDS011;54319;52.038;4.640;2023-06-19T01:59:43;5.03;;;4.50;;
67456;SDS011;54319;52.038;4.640;2023-06-19T02:02:10;6.85;;;4.82;;
67456;SDS011;54319;52.038;4.640;2023-06-19T02:04:37;5.85;;;4.90;;
67456;SDS011;54319;52.038;4.640;2023-06-19T02:07:03;5.60;;;4.72;;
67456;SDS011;54319;52.038;4.640;2023-06-19T02:09:31;6.10;;;4.70;;
67456;SDS011;54319;52.038;4.640;2023-06-19T02:11:58;7.25;;;4.95;;
67456;SDS011;54319;52.038;4.640;2023-06-19T02:14:26;6.15;;;4.72;;
67456;SDS011;54319;52.038;4.640;2023-06-19T02:16:52;8.95;;;4.93;;
67456;SDS011;54319;52.038;4.640;2023-06-19T02:19:19;7.72;;;5.25;;
67456;SDS011;54319;52.038;4.640;2023-06-19T02:21:45;7.18;;;5.03;;
67456;SDS011;54319;52.038;4.640;2023-06-19T02:24:12;6.30;;;4.88;;
67456;SDS011;54319;52.038;4.640;2023-06-19T02:26:38;6.20;;;5.53;;
67456;SDS011;54319;52.038;4.640;2023-06-19T02:29:05;9.73;;;5.97;;
67456;SDS011;54319;52.038;4.640;2023-06-19T02:31:33;10.38;;;6.43;;
67456;SDS011;54319;52.038;4.640;2023-06-19T02:34:00;9.32;;;6.82;;
67456;SDS011;54319;52.038;4.640;2023-06-19T02:36:26;12.98;;;7.43;;
67456;SDS011;54319;52.038;4.640;2023-06-19T02:38:55;12.82;;;7.57;;
67456;SDS011;54319;52.038;4.640;2023-06-19T02:41:21;20.17;;;9.85;;
67456;SDS011;54319;52.038;4.640;2023-06-19T02:43:48;21.80;;;11.23;;
67456;SDS011;54319;52.038;4.640;2023-06-19T02:46:14;19.10;;;10.30;;
67456;SDS011;54319;52.038;4.640;2023-06-19T02:48:42;19.92;;;10.45;;
67456;SDS011;54319;52.038;4.640;2023-06-19T02:51:09;17.95;;;11.05;;
67456;SDS011;54319;52.038;4.640;2023-06-19T02:53:36;17.13;;;10.70;;
67456;SDS011;54319;52.038;4.640;2023-06-19T02:56:03;17.70;;;11.65;;
67456;SDS011;54319;52.038;4.640;2023-06-19T02:58:30;17.92;;;11.48;;
67456;SDS011;54319;52.038;4.640;2023-06-19T03:00:57;20.60;;;11.48;;
67456;SDS011;54319;52.038;4.640;2023-06-19T03:03:24;17.50;;;10.43;;
67456;SDS011;54319;52.038;4.640;2023-06-19T03:05:52;16.50;;;11.23;;
67456;SDS011;54319;52.038;4.640;2023-06-19T03:08:18;16.95;;;11.68;;
67456;SDS011;54319;52.038;4.640;2023-06-19T03:10:45;16.33;;;10.60;;
67456;SDS011;54319;52.038;4.640;2023-06-19T03:13:12;13.73;;;8.90;;
67456;SDS011;54319;52.038;4.640;2023-06-19T03:15:39;12.63;;;9.40;;
67456;SDS011;54319;52.038;4.640;2023-06-19T03:18:06;14.85;;;9.90;;
67456;SDS011;54319;52.038;4.640;2023-06-19T03:20:34;17.92;;;10.15;;
67456;SDS011;54319;52.038;4.640;2023-06-19T03:23:02;15.23;;;10.18;;
67456;SDS011;54319;52.038;4.640;2023-06-19T03:25:29;19.38;;;11.00;;
67456;SDS011;54319;52.038;4.640;2023-06-19T03:27:59;16.45;;;11.18;;
67456;SDS011;54319;52.038;4.640;2023-06-19T03:30:26;18.35;;;11.93;;
67456;SDS011;54319;52.038;4.640;2023-06-19T03:32:53;22.45;;;13.85;;
67456;SDS011;54319;52.038;4.640;2023-06-19T03:35:20;24.25;;;15.48;;
67456;SDS011;54319;52.038;4.640;2023-06-19T03:37:46;21.45;;;13.70;;
67456;SDS011;54319;52.038;4.640;2023-06-19T03:40:14;19.30;;;13.15;;
67456;SDS011;54319;52.038;4.640;2023-06-19T03:42:41;18.27;;;12.00;;
67456;SDS011;54319;52.038;4.640;2023-06-19T03:45:08;16.27;;;10.95;;
67456;SDS011;54319;52.038;4.640;2023-06-19T03:50:01;15.43;;;8.90;;
67456;SDS011;54319;52.038;4.640;2023-06-19T03:52:28;11.25;;;7.75;;
67456;SDS011;54319;52.038;4.640;2023-06-19T03:54:54;11.23;;;7.55;;
67456;SDS011;54319;52.038;4.640;2023-06-19T03:57:22;9.40;;;7.30;;
67456;SDS011;54319;52.038;4.640;2023-06-19T03:59:49;10.95;;;6.65;;
67456;SDS011;54319;52.038;4.640;2023-06-19T04:02:17;8.25;;;6.60;;
67456;SDS011;54319;52.038;4.640;2023-06-19T04:04:43;8.13;;;4.80;;
67456;SDS011;54319;52.038;4.640;2023-06-19T04:07:10;8.40;;;4.50;;
67456;SDS011;54319;52.038;4.640;2023-06-19T04:09:37;8.88;;;4.60;;
67456;SDS011;54319;52.038;4.640;2023-06-19T04:12:04;6.38;;;4.53;;
67456;SDS011;54319;52.038;4.640;2023-06-19T04:14:32;4.88;;;3.75;;
67456;SDS011;54319;52.038;4.640;2023-06-19T04:16:59;5.32;;;4.03;;
67456;SDS011;54319;52.038;4.640;2023-06-19T04:19:25;4.80;;;3.60;;
67456;SDS011;54319;52.038;4.640;2023-06-19T04:21:52;7.47;;;4.47;;
67456;SDS011;54319;52.038;4.640;2023-06-19T04:26:46;6.45;;;3.65;;
67456;SDS011;54319;52.038;4.640;2023-06-19T04:29:12;3.55;;;3.05;;
67456;SDS011;54319;52.038;4.640;2023-06-19T04:31:43;5.07;;;3.10;;
67456;SDS011;54319;52.038;4.640;2023-06-19T04:34:12;3.42;;;3.03;;
67456;SDS011;54319;52.038;4.640;2023-06-19T04:36:39;4.20;;;2.92;;
67456;SDS011;54319;52.038;4.640;2023-06-19T04:39:06;5.40;;;3.85;;
67456;SDS011;54319;52.038;4.640;2023-06-19T04:41:32;6.38;;;4.60;;
67456;SDS011;54319;52.038;4.640;2023-06-19T04:43:59;6.40;;;4.07;;
67456;SDS011;54319;52.038;4.640;2023-06-19T04:46:28;5.07;;;4.00;;
67456;SDS011;54319;52.038;4.640;2023-06-19T04:48:56;7.05;;;5.13;;
67456;SDS011;54319;52.038;4.640;2023-06-19T04:51:22;9.73;;;5.65;;
67456;SDS011;54319;52.038;4.640;2023-06-19T04:53:49;8.27;;;5.65;;
67456;SDS011;54319;52.038;4.640;2023-06-19T04:56:15;9.75;;;6.28;;
67456;SDS011;54319;52.038;4.640;2023-06-19T04:58:42;10.13;;;5.65;;
67456;SDS011;54319;52.038;4.640;2023-06-19T05:01:11;7.82;;;5.10;;
67456;SDS011;54319;52.038;4.640;2023-06-19T05:03:37;8.05;;;5.10;;
67456;SDS011;54319;52.038;4.640;2023-06-19T05:06:06;7.18;;;5.00;;
67456;SDS011;54319;52.038;4.640;2023-06-19T05:08:33;8.25;;;4.82;;
67456;SDS011;54319;52.038;4.640;2023-06-19T05:11:00;9.40;;;5.03;;
67456;SDS011;54319;52.038;4.640;2023-06-19T05:13:27;8.38;;;4.93;;
67456;SDS011;54319;52.038;4.640;2023-06-19T05:15:53;7.10;;;4.50;;
67456;SDS011;54319;52.038;4.640;2023-06-19T05:18:21;9.63;;;5.18;;
67456;SDS011;54319;52.038;4.640;2023-06-19T05:20:47;8.60;;;4.93;;
67456;SDS011;54319;52.038;4.640;2023-06-19T05:23:16;12.27;;;5.43;;
67456;SDS011;54319;52.038;4.640;2023-06-19T05:25:42;7.97;;;5.65;;
67456;SDS011;54319;52.038;4.640;2023-06-19T05:28:09;10.13;;;6.68;;
67456;SDS011;54319;52.038;4.640;2023-06-19T05:30:35;9.90;;;6.55;;
67456;SDS011;54319;52.038;4.640;2023-06-19T05:33:02;12.63;;;7.07;;
67456;SDS011;54319;52.038;4.640;2023-06-19T05:35:29;12.65;;;7.70;;
67456;SDS011;54319;52.038;4.640;2023-06-19T05:37:56;13.52;;;8.52;;
67456;SDS011;54319;52.038;4.640;2023-06-19T05:40:24;16.13;;;8.90;;
67456;SDS011;54319;52.038;4.640;2023-06-19T05:42:51;12.60;;;8.48;;
67456;SDS011;54319;52.038;4.640;2023-06-19T05:45:18;12.63;;;7.82;;
67456;SDS011;54319;52.038;4.640;2023-06-19T05:47:44;14.70;;;8.63;;
67456;SDS011;54319;52.038;4.640;2023-06-19T05:50:11;16.45;;;8.75;;
67456;SDS011;54319;52.038;4.640;2023-06-19T05:52:37;10.57;;;7.97;;
67456;SDS011;54319;52.038;4.640;2023-06-19T05:55:08;15.20;;;8.63;;
67456;SDS011;54319;52.038;4.640;2023-06-19T05:57:36;13.25;;;9.02;;
67456;SDS011;54319;52.038;4.640;2023-06-19T06:00:03;11.60;;;8.15;;
67456;SDS011;54319;52.038;4.640;2023-06-19T06:02:32;14.95;;;8.52;;
67456;SDS011;54319;52.038;4.640;2023-06-19T06:04:58;31.38;;;9.48;;
67456;SDS011;54319;52.038;4.640;2023-06-19T06:07:25;18.02;;;8.70;;
67456;SDS011;54319;52.038;4.640;2023-06-19T06:09:53;33.17;;;11.30;;
67456;SDS011;54319;52.038;4.640;2023-06-19T06:12:20;27.73;;;10.65;;
67456;SDS011;54319;52.038;4.640;2023-06-19T06:14:48;34.05;;;9.55;;
67456;SDS011;54319;52.038;4.640;2023-06-19T06:17:14;19.42;;;8.98;;
67456;SDS011;54319;52.038;4.640;2023-06-19T06:19:41;14.10;;;8.13;;
67456;SDS011;54319;52.038;4.640;2023-06-19T06:22:08;11.02;;;8.35;;
67456;SDS011;54319;52.038;4.640;2023-06-19T06:24:34;13.32;;;8.63;;
67456;SDS011;54319;52.038;4.640;2023-06-19T06:27:01;16.60;;;8.65;;
67456;SDS011;54319;52.038;4.640;2023-06-19T06:29:28;14.70;;;8.43;;
67456;SDS011;54319;52.038;4.640;2023-06-19T06:32:03;12.52;;;8.25;;
67456;SDS011;54319;52.038;4.640;2023-06-19T06:34:31;12.73;;;7.57;;
67456;SDS011;54319;52.038;4.640;2023-06-19T06:36:58;12.90;;;8.07;;
67456;SDS011;54319;52.038;4.640;2023-06-19T06:39:25;12.02;;;6.90;;
67456;SDS011;54319;52.038;4.640;2023-06-19T06:41:51;13.25;;;8.25;;
67456;SDS011;54319;52.038;4.640;2023-06-19T06:44:18;14.23;;;7.65;;
67456;SDS011;54319;52.038;4.640;2023-06-19T06:46:45;11.73;;;7.70;;
67456;SDS011;54319;52.038;4.640;2023-06-19T06:49:13;12.70;;;7.68;;
67456;SDS011;54319;52.038;4.640;2023-06-19T06:51:41;10.35;;;7.15;;
67456;SDS011;54319;52.038;4.640;2023-06-19T06:54:07;10.40;;;6.90;;
67456;SDS011;54319;52.038;4.640;2023-06-19T06:59:01;11.65;;;7.38;;
67456;SDS011;54319;52.038;4.640;2023-06-19T07:01:27;12.93;;;7.38;;
67456;SDS011;54319;52.038;4.640;2023-06-19T07:03:54;11.50;;;7.60;;
67456;SDS011;54319;52.038;4.640;2023-06-19T07:06:23;12.85;;;7.10;;
67456;SDS011;54319;52.038;4.640;2023-06-19T07:08:49;10.75;;;7.47;;
67456;SDS011;54319;52.038;4.640;2023-06-19T07:11:16;11.00;;;6.75;;
67456;SDS011;54319;52.038;4.640;2023-06-19T07:13:43;11.98;;;6.60;;
67456;SDS011;54319;52.038;4.640;2023-06-19T07:16:09;8.65;;;5.88;;
67456;SDS011;54319;52.038;4.640;2023-06-19T07:18:36;13.90;;;6.72;;
67456;SDS011;54319;52.038;4.640;2023-06-19T07:23:34;11.55;;;6.70;;
67456;SDS011;54319;52.038;4.640;2023-06-19T07:26:00;12.32;;;6.63;;
67456;SDS011;54319;52.038;4.640;2023-06-19T07:28:27;11.65;;;7.10;;
67456;SDS011;54319;52.038;4.640;2023-06-19T07:30:55;15.23;;;7.15;;
67456;SDS011;54319;52.038;4.640;2023-06-19T07:33:21;11.40;;;6.10;;
67456;SDS011;54319;52.038;4.640;2023-06-19T07:35:48;11.57;;;6.55;;
67456;SDS011;54319;52.038;4.640;2023-06-19T07:38:14;7.95;;;6.25;;
67456;SDS011;54319;52.038;4.640;2023-06-19T07:40:42;10.63;;;6.40;;
67456;SDS011;54319;52.038;4.640;2023-06-19T07:43:09;10.93;;;6.43;;
67456;SDS011;54319;52.038;4.640;2023-06-19T07:45:36;10.90;;;6.95;;
67456;SDS011;54319;52.038;4.640;2023-06-19T07:48:03;9.55;;;6.78;;
67456;SDS011;54319;52.038;4.640;2023-06-19T07:50:30;15.15;;;7.10;;
67456;SDS011;54319;52.038;4.640;2023-06-19T07:52:57;11.23;;;7.22;;
67456;SDS011;54319;52.038;4.640;2023-06-19T07:55:23;15.05;;;6.53;;
67456;SDS011;54319;52.038;4.640;2023-06-19T07:57:51;12.80;;;6.20;;
67456;SDS011;54319;52.038;4.640;2023-06-19T08:00:21;13.57;;;6.53;;
67456;SDS011;54319;52.038;4.640;2023-06-19T08:02:48;10.20;;;6.30;;
67456;SDS011;54319;52.038;4.640;2023-06-19T08:05:15;10.25;;;7.00;;
67456;SDS011;54319;52.038;4.640;2023-06-19T08:07:42;15.98;;;6.68;;
67456;SDS011;54319;52.038;4.640;2023-06-19T08:10:09;12.88;;;6.32;;
67456;SDS011;54319;52.038;4.640;2023-06-19T08:12:36;11.60;;;6.70;;
67456;SDS011;54319;52.038;4.640;2023-06-19T08:15:04;10.45;;;7.38;;
67456;SDS011;54319;52.038;4.640;2023-06-19T08:17:31;13.70;;;6.88;;
67456;SDS011;54319;52.038;4.640;2023-06-19T08:19:58;11.57;;;6.90;;
67456;SDS011;54319;52.038;4.640;2023-06-19T08:22:25;11.93;;;7.13;;
67456;SDS011;54319;52.038;4.640;2023-06-19T08:24:51;12.57;;;6.97;;
67456;SDS011;54319;52.038;4.640;2023-06-19T08:27:18;12.15;;;6.30;;
67456;SDS011;54319;52.038;4.640;2023-06-19T08:29:44;10.82;;;6.63;;
67456;SDS011;54319;52.038;4.640;2023-06-19T08:32:12;8.18;;;6.47;;
67456;SDS011;54319;52.038;4.640;2023-06-19T08:34:39;11.02;;;6.80;;
67456;SDS011;54319;52.038;4.640;2023-06-19T08:37:07;8.85;;;6.43;;
67456;SDS011;54319;52.038;4.640;2023-06-19T08:39:33;11.02;;;7.13;;
67456;SDS011;54319;52.038;4.640;2023-06-19T08:42:01;11.20;;;6.22;;
67456;SDS011;54319;52.038;4.640;2023-06-19T08:44:28;12.55;;;6.30;;
67456;SDS011;54319;52.038;4.640;2023-06-19T08:46:57;13.38;;;6.10;;
67456;SDS011;54319;52.038;4.640;2023-06-19T08:49:25;8.35;;;6.55;;
67456;SDS011;54319;52.038;4.640;2023-06-19T08:51:51;11.43;;;6.78;;
67456;SDS011;54319;52.038;4.640;2023-06-19T08:54:18;7.90;;;6.57;;
67456;SDS011;54319;52.038;4.640;2023-06-19T08:56:46;11.82;;;6.97;;
67456;SDS011;54319;52.038;4.640;2023-06-19T08:59:13;9.07;;;6.25;;
67456;SDS011;54319;52.038;4.640;2023-06-19T09:01:46;8.90;;;6.07;;
67456;SDS011;54319;52.038;4.640;2023-06-19T09:04:17;10.07;;;6.60;;
67456;SDS011;54319;52.038;4.640;2023-06-19T09:06:49;11.15;;;6.60;;
67456;SDS011;54319;52.038;4.640;2023-06-19T09:09:17;13.27;;;6.65;;
67456;SDS011;54319;52.038;4.640;2023-06-19T09:11:56;14.07;;;6.38;;
67456;SDS011;54319;52.038;4.640;2023-06-19T09:14:24;15.18;;;7.03;;
67456;SDS011;54319;52.038;4.640;2023-06-19T09:16:56;11.35;;;6.72;;
67456;SDS011;54319;52.038;4.640;2023-06-19T09:19:23;11.13;;;6.75;;
67456;SDS011;54319;52.038;4.640;2023-06-19T09:21:51;14.02;;;8.30;;
67456;SDS011;54319;52.038;4.640;2023-06-19T09:24:18;15.85;;;9.07;;
67456;SDS011;54319;52.038;4.640;2023-06-19T09:26:44;16.10;;;8.60;;
67456;SDS011;54319;52.038;4.640;2023-06-19T09:29:11;15.32;;;8.85;;
67456;SDS011;54319;52.038;4.640;2023-06-19T09:31:38;12.65;;;9.02;;
67456;SDS011;54319;52.038;4.640;2023-06-19T09:34:06;14.10;;;8.80;;
67456;SDS011;54319;52.038;4.640;2023-06-19T09:36:34;13.45;;;8.40;;
67456;SDS011;54319;52.038;4.640;2023-06-19T09:39:03;10.90;;;7.75;;
67456;SDS011;54319;52.038;4.640;2023-06-19T09:41:30;9.85;;;7.65;;
67456;SDS011;54319;52.038;4.640;2023-06-19T09:43:56;10.13;;;7.82;;
67456;SDS011;54319;52.038;4.640;2023-06-19T09:46:26;14.23;;;8.57;;
67456;SDS011;54319;52.038;4.640;2023-06-19T09:48:57;13.02;;;7.35;;
67456;SDS011;54319;52.038;4.640;2023-06-19T09:51:27;12.10;;;6.88;;
67456;SDS011;54319;52.038;4.640;2023-06-19T09:53:57;13.95;;;7.63;;
67456;SDS011;54319;52.038;4.640;2023-06-19T09:56:25;10.30;;;7.50;;
67456;SDS011;54319;52.038;4.640;2023-06-19T09:58:54;10.40;;;6.32;;
67456;SDS011;54319;52.038;4.640;2023-06-19T10:01:26;13.23;;;7.20;;
67456;SDS011;54319;52.038;4.640;2023-06-19T10:04:04;12.60;;;9.57;;
67456;SDS011;54319;52.038;4.640;2023-06-19T10:06:31;13.80;;;10.75;;
67456;SDS011;54319;52.038;4.640;2023-06-19T10:09:05;18.60;;;11.27;;
67456;SDS011;54319;52.038;4.640;2023-06-19T10:11:45;15.85;;;10.88;;
67456;SDS011;54319;52.038;4.640;2023-06-19T10:14:13;15.13;;;10.82;;
67456;SDS011;54319;52.038;4.640;2023-06-19T10:16:43;15.43;;;10.98;;
67456;SDS011;54319;52.038;4.640;2023-06-19T10:19:13;17.25;;;10.43;;
67456;SDS011;54319;52.038;4.640;2023-06-19T10:21:44;12.88;;;9.90;;
67456;SDS011;54319;52.038;4.640;2023-06-19T10:24:13;22.77;;;9.88;;
67456;SDS011;54319;52.038;4.640;2023-06-19T10:26:41;15.02;;;10.40;;
67456;SDS011;54319;52.038;4.640;2023-06-19T10:29:15;17.25;;;9.52;;
67456;SDS011;54319;52.038;4.640;2023-06-19T10:31:43;16.60;;;10.50;;
67456;SDS011;54319;52.038;4.640;2023-06-19T10:34:10;13.82;;;10.00;;
67456;SDS011;54319;52.038;4.640;2023-06-19T10:36:38;13.57;;;9.55;;
67456;SDS011;54319;52.038;4.640;2023-06-19T10:39:05;16.70;;;10.15;;
67456;SDS011;54319;52.038;4.640;2023-06-19T10:41:32;12.27;;;8.27;;
67456;SDS011;54319;52.038;4.640;2023-06-19T10:46:29;14.07;;;9.27;;
67456;SDS011;54319;52.038;4.640;2023-06-19T10:48:58;13.90;;;9.13;;
67456;SDS011;54319;52.038;4.640;2023-06-19T10:51:26;11.20;;;7.63;;
67456;SDS011;54319;52.038;4.640;2023-06-19T10:53:53;13.80;;;8.30;;
67456;SDS011;54319;52.038;4.640;2023-06-19T10:56:21;13.75;;;8.93;;
67456;SDS011;54319;52.038;4.640;2023-06-19T10:58:48;10.25;;;7.97;;
67456;SDS011;54319;52.038;4.640;2023-06-19T11:01:23;13.45;;;8.70;;
67456;SDS011;54319;52.038;4.640;2023-06-19T11:04:05;12.13;;;7.32;;
67456;SDS011;54319;52.038;4.640;2023-06-19T11:06:34;14.23;;;8.20;;
67456;SDS011;54319;52.038;4.640;2023-06-19T11:09:01;15.32;;;7.55;;
67456;SDS011;54319;52.038;4.640;2023-06-19T11:11:36;12.50;;;8.70;;
67456;SDS011;54319;52.038;4.640;2023-06-19T11:14:04;11.00;;;7.93;;
67456;SDS011;54319;52.038;4.640;2023-06-19T11:16:31;11.52;;;8.00;;
67456;SDS011;54319;52.038;4.640;2023-06-19T11:21:30;12.10;;;7.82;;
67456;SDS011;54319;52.038;4.640;2023-06-19T11:23:58;11.35;;;8.13;;
67456;SDS011;54319;52.038;4.640;2023-06-19T11:26:26;15.05;;;8.15;;
67456;SDS011;54319;52.038;4.640;2023-06-19T11:28:52;12.18;;;7.75;;
67456;SDS011;54319;52.038;4.640;2023-06-19T11:31:24;9.60;;;7.97;;
67456;SDS011;54319;52.038;4.640;2023-06-19T11:33:55;10.75;;;8.05;;
67456;SDS011;54319;52.038;4.640;2023-06-19T11:36:24;6.25;;;4.95;;
67456;SDS011;54319;52.038;4.640;2023-06-19T11:38:51;10.48;;;4.70;;
67456;SDS011;54319;52.038;4.640;2023-06-19T11:41:24;7.97;;;4.55;;
67456;SDS011;54319;52.038;4.640;2023-06-19T11:43:57;6.80;;;4.32;;
67456;SDS011;54319;52.038;4.640;2023-06-19T11:46:28;8.98;;;4.53;;
67456;SDS011;54319;52.038;4.640;2023-06-19T11:48:55;6.70;;;3.90;;
67456;SDS011;54319;52.038;4.640;2023-06-19T11:51:34;6.65;;;4.10;;
67456;SDS011;54319;52.038;4.640;2023-06-19T11:54:00;6.53;;;4.10;;
67456;SDS011;54319;52.038;4.640;2023-06-19T11:56:28;7.13;;;4.20;;
67456;SDS011;54319;52.038;4.640;2023-06-19T11:58:55;6.70;;;4.80;;
67456;SDS011;54319;52.038;4.640;2023-06-19T12:01:24;9.30;;;4.95;;
67456;SDS011;54319;52.038;4.640;2023-06-19T12:03:51;9.73;;;5.10;;
67456;SDS011;54319;52.038;4.640;2023-06-19T12:08:45;11.05;;;6.43;;
67456;SDS011;54319;52.038;4.640;2023-06-19T12:11:12;7.75;;;5.65;;
67456;SDS011;54319;52.038;4.640;2023-06-19T12:16:06;9.15;;;6.50;;
67456;SDS011;54319;52.038;4.640;2023-06-19T12:28:20;10.27;;;6.47;;
67456;SDS011;54319;52.038;4.640;2023-06-19T12:30:47;10.90;;;6.55;;
67456;SDS011;54319;52.038;4.640;2023-06-19T12:33:16;9.73;;;7.20;;
67456;SDS011;54319;52.038;4.640;2023-06-19T12:35:43;8.48;;;7.30;;
67456;SDS011;54319;52.038;4.640;2023-06-19T12:38:11;11.07;;;7.45;;
67456;SDS011;54319;52.038;4.640;2023-06-19T12:40:37;9.27;;;6.93;;
67456;SDS011;54319;52.038;4.640;2023-06-19T12:45:32;8.98;;;6.75;;
67456;SDS011;54319;52.038;4.640;2023-06-19T12:47:59;7.40;;;5.97;;
67456;SDS011;54319;52.038;4.640;2023-06-19T12:52:52;7.78;;;6.10;;
67456;SDS011;54319;52.038;4.640;2023-06-19T12:55:18;7.65;;;6.55;;
67456;SDS011;54319;52.038;4.640;2023-06-19T12:57:45;8.93;;;6.82;;
67456;SDS011;54319;52.038;4.640;2023-06-19T13:02:41;10.23;;;5.90;;
67456;SDS011;54319;52.038;4.640;2023-06-19T13:05:09;7.60;;;5.53;;
67456;SDS011;54319;52.038;4.640;2023-06-19T13:07:36;7.72;;;5.72;;
67456;SDS011;54319;52.038;4.640;2023-06-19T13:10:03;11.23;;;6.88;;
67456;SDS011;54319;52.038;4.640;2023-06-19T13:12:31;8.20;;;6.15;;
67456;SDS011;54319;52.038;4.640;2023-06-19T13:19:52;7.43;;;5.53;;
67456;SDS011;54319;52.038;4.640;2023-06-19T13:22:18;9.13;;;6.30;;
67456;SDS011;54319;52.038;4.640;2023-06-19T13:24:45;9.95;;;6.03;;
67456;SDS011;54319;52.038;4.640;2023-06-19T13:27:11;7.38;;;5.68;;
67456;SDS011;54319;52.038;4.640;2023-06-19T13:29:38;6.40;;;5.28;;
67456;SDS011;54319;52.038;4.640;2023-06-19T13:32:05;9.07;;;5.47;;
67456;SDS011;54319;52.038;4.640;2023-06-19T13:34:34;8.65;;;5.60;;
67456;SDS011;54319;52.038;4.640;2023-06-19T13:37:00;8.02;;;4.95;;
67456;SDS011;54319;52.038;4.640;2023-06-19T13:39:27;6.65;;;4.55;;
67456;SDS011;54319;52.038;4.640;2023-06-19T13:41:55;7.43;;;4.93;;
67456;SDS011;54319;52.038;4.640;2023-06-19T13:44:22;9.10;;;4.63;;
67456;SDS011;54319;52.038;4.640;2023-06-19T13:49:15;7.32;;;4.80;;
67456;SDS011;54319;52.038;4.640;2023-06-19T13:54:09;6.30;;;4.22;;
67456;SDS011;54319;52.038;4.640;2023-06-19T13:56:38;6.40;;;4.63;;
67456;SDS011;54319;52.038;4.640;2023-06-19T13:59:05;7.20;;;5.30;;
67456;SDS011;54319;52.038;4.640;2023-06-19T14:01:32;7.07;;;5.10;;
67456;SDS011;54319;52.038;4.640;2023-06-19T14:03:59;7.68;;;4.88;;
67456;SDS011;54319;52.038;4.640;2023-06-19T14:08:53;7.28;;;4.90;;
67456;SDS011;54319;52.038;4.640;2023-06-19T14:11:20;5.93;;;4.60;;
67456;SDS011;54319;52.038;4.640;2023-06-19T14:16:13;6.95;;;5.05;;
67456;SDS011;54319;52.038;4.640;2023-06-19T14:21:06;6.63;;;4.60;;
67456;SDS011;54319;52.038;4.640;2023-06-19T14:26:05;7.35;;;4.93;;
67456;SDS011;54319;52.038;4.640;2023-06-19T14:28:32;8.40;;;4.88;;
67456;SDS011;54319;52.038;4.640;2023-06-19T14:33:25;5.88;;;4.07;;
67456;SDS011;54319;52.038;4.640;2023-06-19T14:38:18;7.30;;;5.05;;
67456;SDS011;54319;52.038;4.640;2023-06-19T14:43:13;7.97;;;4.75;;
67456;SDS011;54319;52.038;4.640;2023-06-19T14:45:39;8.45;;;4.60;;
67456;SDS011;54319;52.038;4.640;2023-06-19T14:48:07;10.13;;;4.82;;
67456;SDS011;54319;52.038;4.640;2023-06-19T14:53:00;8.95;;;4.78;;
67456;SDS011;54319;52.038;4.640;2023-06-19T14:57:53;8.40;;;4.55;;
67456;SDS011;54319;52.038;4.640;2023-06-19T15:00:22;7.00;;;4.03;;
67456;SDS011;54319;52.038;4.640;2023-06-19T15:02:49;5.32;;;4.10;;
67456;SDS011;54319;52.038;4.640;2023-06-19T15:07:42;6.25;;;3.80;;
67456;SDS011;54319;52.038;4.640;2023-06-19T15:12:35;6.25;;;4.32;;
67456;SDS011;54319;52.038;4.640;2023-06-19T15:17:30;7.57;;;4.20;;
67456;SDS011;54319;52.038;4.640;2023-06-19T15:19:57;7.88;;;4.22;;
67456;SDS011;54319;52.038;4.640;2023-06-19T15:24:50;5.50;;;4.05;;
67456;SDS011;54319;52.038;4.640;2023-06-19T15:29:43;7.57;;;4.35;;
67456;SDS011;54319;52.038;4.640;2023-06-19T15:32:11;6.05;;;4.63;;
67456;SDS011;54319;52.038;4.640;2023-06-19T15:37:06;8.10;;;4.00;;
67456;SDS011;54319;52.038;4.640;2023-06-19T15:39:33;7.72;;;4.85;;
67456;SDS011;54319;52.038;4.640;2023-06-19T15:46:52;7.25;;;4.15;;
67456;SDS011;54319;52.038;4.640;2023-06-19T15:49:19;8.10;;;4.50;;
67456;SDS011;54319;52.038;4.640;2023-06-19T15:51:47;5.22;;;4.00;;
67456;SDS011;54319;52.038;4.640;2023-06-19T15:54:13;6.38;;;3.83;;
67456;SDS011;54319;52.038;4.640;2023-06-19T15:56:40;7.63;;;4.15;;
67456;SDS011;54319;52.038;4.640;2023-06-19T15:59:07;7.90;;;4.18;;
67456;SDS011;54319;52.038;4.640;2023-06-19T16:01:34;6.13;;;4.10;;
67456;SDS011;54319;52.038;4.640;2023-06-19T16:06:27;8.45;;;4.00;;
67456;SDS011;54319;52.038;4.640;2023-06-19T16:11:23;6.85;;;3.97;;
67456;SDS011;54319;52.038;4.640;2023-06-19T16:16:17;6.97;;;3.97;;
67456;SDS011;54319;52.038;4.640;2023-06-19T16:18:44;7.63;;;4.25;;
67456;SDS011;54319;52.038;4.640;2023-06-19T16:21:11;7.85;;;3.88;;
67456;SDS011;54319;52.038;4.640;2023-06-19T16:23:40;7.53;;;4.25;;
67456;SDS011;54319;52.038;4.640;2023-06-19T16:28:36;6.03;;;3.97;;